Terminal Aerodrome Forecast
Issued by NWS Knoxville/Tri Cities, TN

Home | Current Version | Previous Version | Text Only | Print | Product List | Glossary On
Versions: 1 2 3 4 5 6 7 8 9 10 11 12 13 14 15
000
FTUS44 KMRX 271134
TAFTRI
TAF
KTRI 271134Z 2712/2812 VRB04KT P6SM SCT050 BKN200
      TEMPO 2712/2713 4SM BR SCT004
     FM271900 19006KT P6SM VCTS SCT050CB BKN200
     FM280000 VRB03KT P6SM SCT070 BKN250
     FM280700 00000KT 3SM BR SCT250
     FM280900 00000KT 1SM BR SCT002=

USA.gov is the U.S. government's official web portal to all federal, state and local government web resources and services.